VHHH

Chek Lap Kok International Airport

Hong Kong, Hong Kong
TAF VHHH 251700Z 2518/2624 11010KT 7000 FEW015 SCT030 TX26/2606Z TN23/2523Z
Issued Valid From Valid To
Apr-25 @ 17:00 UTC
(an hour ago)
Apr-25 @ 18:00 UTC
(7 minutes ago)
Apr-27 @ 00:00 UTC
(-1 days ago)
Apr-25 @ 18:00 to Apr-27 @ 00:00
TAF VHHH 251700Z 2518/2624 11010KT 7000 FEW015 SCT030 TX26/2606Z TN23/2523Z
Wind Visibility Clouds
110° at 10 knots 7,001 meters
  • Few at 1,500' AGL
  • Scattered at 3,000' AGL
TAF VHHH 251700Z 2518/2624 11010KT 7000 FEW015 SCT030 TX26/2606Z TN23/2523Z
Issued Apr-25 @ 17:00 UTC
(an hour ago)
Valid From Apr-25 @ 18:00 UTC
(7 minutes ago)
Valid To Apr-27 @ 00:00 UTC
(-1 days ago)
Apr-25 @ 18:00 - Apr-27 @ 00:00
Wind Visibility
110° at 10 knots 7,001 meters
Clouds
  • Few at 1,500' AGL
  • Scattered at 3,000' AGL